Daniel Roberts

Olheiro - Preston
3 Fev 2028
Quinta-feira
Processo

Personalidade

Adaptabilidade (3) Ambição (19) Controvérsia (18) Lealdade (9) Pressão (19) Profissionalismo (2) Espírito Esportivo (3) Temperamento (3)

Perfil

Estilo de Treinamento Democrático
Licença Continental B
Determinação 11
Gestão de Pessoas 4
Motivação 11
Disciplina 11
Satisfação no Trabalho
100%
Fadiga
0%
Função Olheiro
Salário 81.1K p/s
Contrato 14.03.2030

Desempenho

Comportamento Bom
Eficácia do Treinamento
30%
Desenvolvimento do Jogador
40%
Prevenção de Lesões
25%
Implementação Tática
35%

Eventos Recentes

Participando de desenvolvimento profissional 14d atrás
Participou de uma reunião de recrutamento 14d atrás
Participando de desenvolvimento profissional 14d atrás
Participando de desenvolvimento profissional 14d atrás
Participando de desenvolvimento profissional 14d atrás
Participou de uma reunião de recrutamento 21d atrás
Participando de desenvolvimento profissional 21d atrás
Participando de desenvolvimento profissional 21d atrás

Monitorando agora

61
Jogador Clube Status Habilidade Confiança Observado Última observação Último voto
Andrés Ayala Sunderland Relatório pronto 117 / 105 65% 1 10.01.2028 -
Aurélien Scheidler Tondela Negociando 119 / 119 67% 1 01.01.2028 -
Zane Albarus Cambridge United Ativo 89 / 108 40% 2 02.08.2027 -
Gift Udoh Ikorodu City Ativo 93 / 95 40% 1 02.08.2027 -
Lucas Camejo River Plate Ativo 88 / 85 40% 1 02.08.2027 -
Christos Mouzakitis Hull City Ativo 136 / 149 40% 5 26.07.2027 -
Sascha Britschgi Padova Ativo 115 / 121 40% 4 26.07.2027 -
Tiago Freitas Benfica Ativo 108 / 126 40% 2 26.07.2027 -
Caleb Yirenkyi Coventry City Ativo 145 / 155 40% 5 12.07.2027 -
Santiago Hezze Chaves Negociando 132 / 133 62% 1 28.06.2027 -
Dion Beljo Standard Liege Negociando 131 / 132 66% 1 01.06.2027 -
Jefry Zapata Danubio Negociando 118 / 118 67% 1 01.06.2027 -
Riley Owen Trento Ativo 104 / 115 40% 7 31.05.2027 -
Rivaldo Grobler Free State Stars Ativo 95 / 99 40% 4 28.05.2027 -
Ernie Weaver AFC Wimbledon Ativo 99 / 114 40% 5 27.05.2027 -
Finley McAllister Grimsby Town Ativo 94 / 107 40% 1 27.05.2027 -
Keagan Tau Ajax Cape Town Ativo 82 / 93 40% 2 25.05.2027 -
Johan Manzambi Newcastle United Ativo 139 / 151 40% 2 24.05.2027 -
Joel Ezra Enyimba Ativo 83 / 113 40% 1 24.05.2027 -
Christ Inao Oulaï Fiorentina Ativo 141 / 134 40% 5 23.05.2027 -
Leandro Martins Benfica Ativo 89 / 95 40% 3 23.05.2027 -
David Damboama El-Kanemi Warriors Ativo 75 / 77 40% 2 23.05.2027 -
Daniel Kelly Oxford United Ativo 117 / 123 40% 3 22.05.2027 -
Gopolang Taunyane CR Belouizdad Ativo 102 / 89 40% 2 22.05.2027 -
Dylan Lawlor Cardiff City Ativo 106 / 122 40% 3 17.05.2027 -
Percy Jali Free State Stars Ativo 107 / 99 40% 4 15.05.2027 -
Jofre Torrents Ajax Ativo 124 / 119 40% 6 15.05.2027 -
Joel McGregor Swindon Town Ativo 102 / 102 40% 1 15.05.2027 -
Davide Bartesaghi AC Milan Ativo 138 / 131 40% 2 14.05.2027 -
Olaniyi Saheed Kwara United Ativo 83 / 113 40% 1 14.05.2027 -
Gonçalo Oliveira Benfica Ativo 110 / 109 40% 1 14.05.2027 -
Adam Bakoune Ospitaletto Ativo 88 / 104 40% 3 12.05.2027 -
Jan Bürger Gillingham Ativo 109 / 110 40% 4 02.05.2027 -
Josh King Chelsea Ativo 136 / 140 40% 4 01.05.2027 -
Juan Giménez Celta Ativo 116 / 115 40% 2 01.05.2027 -
Matías Gómez Granada Ativo 104 / 125 40% 2 27.04.2027 -
Hlompho Lorch Ajax Cape Town Ativo 99 / 102 40% 4 18.04.2027 -
Ronwen Phiri Platinum Stars Ativo 108 / 91 40% 3 17.04.2027 -
Keagan Phiri Platinum Stars Ativo 91 / 101 40% 3 17.04.2027 -
Edwin Asamoah Berekum Chelsea Ativo 71 / 80 40% 2 16.04.2027 -
Cathal Heffernan Harrogate Town Ativo 76 / 79 40% 2 15.04.2027 -
Martim Cunha Porto Ativo 92 / 98 40% 1 12.04.2027 -
David Ozoh Derby County Ativo 111 / 125 40% 4 05.04.2027 -
Mpho Khethang AS Police Ativo 70 / 78 40% 1 03.04.2027 -
Kazunari Kita Real Sociedad Ativo 99 / 107 40% 1 28.03.2027 -
Daniel Costa Sporting CP Ativo 92 / 110 40% 1 28.03.2027 -
Cemran Dansin Orlando Pirates Ativo 96 / 129 40% 2 21.03.2027 -
Matvey Kislyak CSKA Moscow Ativo 135 / 145 40% 1 16.03.2027 -
Robert Voloder New York Red Bulls Ativo 111 / 109 40% 1 13.12.2026 -
Oliver Skipp Leicester City Ativo 138 / 137 40% 1 13.12.2026 -
Jacques Ekomié Wrexham Ativo 130 / 125 40% 1 09.12.2026 -
Teden Mengi Luton Town Ativo 130 / 121 40% 1 09.12.2026 -
Maren Kefas Plateau United Ativo 90 / 88 40% 1 20.11.2026 -
Vivaldo Semedo Watford Ativo 119 / 123 40% 1 20.11.2026 -
Will Lankshear Middlesbrough Ativo 123 / 124 40% 1 20.11.2026 -
Jonás Luna Santa Clara Ativo 120 / 112 40% 2 12.11.2026 -
Nikolay Zlatev Cherno More Ativo 91 / 100 40% 1 12.11.2026 -
Iwan Morgan Grimsby Town Ativo 115 / 125 40% 1 11.11.2026 -
Hassan Beja AFC Leopards Ativo 71 / 73 40% 1 11.11.2026 -
Seymour Reid New York City Ativo 78 / 118 40% 1 10.11.2026 -
Harvey Sarajian Orlando City Ativo 87 / 90 40% 1 10.11.2026 -